Time;durP1;ratioP1;P1;durP2;ratioP2;P2;SDS_P1;SDS_P2;PMS_P1;PMS_P2;Temp;Humidity;BMP_temperature;BMP_pressure;BME280_temperature;BME280_humidity;BME280_pressure;Samples;Min_cycle;Max_cycle;Signal;HPM_P1;HPM_P2
2021/11/22 00:00:48;;;;;;;26.98;18.27;;;25.40;99.90;;;;;;4230930;28;20512;-72
2021/11/22 00:02:53;;;;;;;25.63;17.80;;;25.30;99.90;;;;;;4239819;27;20050;-72
2021/11/22 00:04:58;;;;;;;29.70;18.98;;;25.40;99.90;;;;;;4230423;28;20134;-72
2021/11/22 00:07:02;;;;;;;28.40;18.48;;;25.40;99.90;;;;;;4230789;28;20063;-72
2021/11/22 00:09:07;;;;;;;28.33;18.17;;;25.40;99.90;;;;;;4230607;28;20760;-72
2021/11/22 00:11:12;;;;;;;24.88;18.27;;;25.50;99.90;;;;;;4230777;28;20077;-72
2021/11/22 00:13:16;;;;;;;34.33;18.80;;;25.50;99.90;;;;;;4243093;27;20043;-72
2021/11/22 00:15:21;;;;;;;30.25;17.80;;;25.60;99.90;;;;;;4237039;27;20043;-72
2021/11/22 00:17:25;;;;;;;32.13;18.40;;;25.50;99.90;;;;;;4231731;27;20058;-72
2021/11/22 00:19:30;;;;;;;26.30;17.17;;;25.40;99.90;;;;;;4233578;27;20446;-72
2021/11/22 00:21:34;;;;;;;29.13;18.23;;;25.40;99.90;;;;;;4229334;28;20557;-72
2021/11/22 00:23:39;;;;;;;29.52;18.42;;;25.50;99.90;;;;;;4228890;28;20126;-72
2021/11/22 00:25:43;;;;;;;30.73;19.90;;;25.50;99.90;;;;;;4228789;28;20036;-71
2021/11/22 00:27:49;;;;;;;29.52;20.15;;;25.60;99.90;;;;;;4228962;28;20100;-72
2021/11/22 00:30:05;;;;;;;25.45;18.98;;;25.70;99.90;;;;;;4208553;28;20102;-72
2021/11/22 00:32:25;;;;;;;26.20;17.40;;;25.80;99.90;;;;;;4230275;27;20035;-72
2021/11/22 00:34:43;;;;;;;25.77;15.65;;;25.90;99.90;;;;;;4217411;27;20490;-72
2021/11/22 00:37:13;;;;;;;26.73;14.60;;;25.80;99.90;;;;;;4218702;28;20246;-71
2021/11/22 00:39:20;;;;;;;24.98;15.52;;;25.80;99.90;;;;;;4234498;27;20047;-71
2021/11/22 00:41:25;;;;;;;21.90;14.43;;;25.90;99.90;;;;;;4238661;27;20122;-72
2021/11/22 00:43:29;;;;;;;20.23;13.63;;;25.80;99.90;;;;;;4237067;27;20405;-72
2021/11/22 00:45:34;;;;;;;26.10;13.23;;;25.80;99.90;;;;;;4235528;27;20047;-71
2021/11/22 00:47:38;;;;;;;17.58;12.93;;;25.90;99.90;;;;;;4237648;27;20031;-72
2021/11/22 00:49:43;;;;;;;27.45;14.68;;;25.90;99.90;;;;;;4238146;27;20035;-72
2021/11/22 00:51:47;;;;;;;26.00;13.65;;;25.90;99.90;;;;;;4238071;27;20046;-71
2021/11/22 00:53:53;;;;;;;24.55;14.40;;;25.90;99.90;;;;;;4236425;27;20124;-72
2021/11/22 00:55:57;;;;;;;25.73;15.40;;;26.00;99.90;;;;;;4235128;27;20047;-71
2021/11/22 00:58:02;;;;;;;22.25;15.85;;;26.00;99.90;;;;;;4236070;27;20466;-72
2021/11/22 01:00:09;;;;;;;24.40;15.52;;;25.80;99.90;;;;;;4237912;27;20038;-72
2021/11/22 01:02:13;;;;;;;26.52;16.10;;;25.70;99.90;;;;;;4238462;27;20532;-72
2021/11/22 01:04:19;;;;;;;23.10;14.82;;;25.80;99.90;;;;;;4236481;27;20039;-72
2021/11/22 01:06:24;;;;;;;23.23;15.63;;;26.00;99.90;;;;;;4236497;27;20089;-72
2021/11/22 01:08:29;;;;;;;25.45;14.82;;;26.10;99.90;;;;;;4223902;27;20047;-72
2021/11/22 01:10:33;;;;;;;23.27;13.88;;;26.10;99.90;;;;;;4212917;28;20044;-72
2021/11/22 01:12:38;;;;;;;23.05;13.38;;;26.20;99.70;;;;;;4226236;28;20039;-72
2021/11/22 01:14:43;;;;;;;17.00;13.23;;;26.20;99.90;;;;;;4213605;28;20074;-73
2021/11/22 01:16:47;;;;;;;22.05;14.50;;;26.30;99.90;;;;;;4228839;28;20062;-71
2021/11/22 01:18:52;;;;;;;24.30;14.55;;;26.30;99.90;;;;;;4228696;28;20152;-71
2021/11/22 01:20:57;;;;;;;23.48;14.50;;;;;;;;;;4236584;27;20484;-72
2021/11/22 01:23:08;;;;;;;18.23;13.20;;;26.40;99.50;;;;;;4223854;27;20048;-73
2021/11/22 01:25:13;;;;;;;20.10;13.07;;;26.40;99.70;;;;;;4232277;27;20039;-72
2021/11/22 01:27:22;;;;;;;18.63;12.70;;;26.40;99.60;;;;;;4230113;27;20488;-73
2021/11/22 01:29:27;;;;;;;16.90;11.73;;;26.50;99.50;;;;;;4213829;28;20047;-72
2021/11/22 01:31:31;;;;;;;18.33;10.98;;;26.60;99.20;;;;;;4233598;27;20149;-72
2021/11/22 01:33:36;;;;;;;20.27;10.77;;;26.70;99.10;;;;;;4215184;28;20048;-72
2021/11/22 01:35:42;;;;;;;15.57;9.90;;;26.70;98.90;;;;;;4231033;28;20043;-72
2021/11/22 01:37:47;;;;;;;15.40;9.90;;;26.70;98.80;;;;;;4228844;27;20074;-72
2021/11/22 01:39:52;;;;;;;15.18;9.80;;;26.70;98.60;;;;;;4228066;28;20400;-72
2021/11/22 01:41:56;;;;;;;15.13;8.95;;;26.80;98.30;;;;;;4226386;28;20046;-73
2021/11/22 01:44:01;;;;;;;18.42;9.73;;;26.80;98.20;;;;;;4225490;28;20383;-72
2021/11/22 01:46:06;;;;;;;13.48;8.80;;;26.90;98.10;;;;;;4227804;28;20031;-72
2021/11/22 01:48:12;;;;;;;14.60;8.80;;;27.00;97.80;;;;;;4228023;28;20060;-72
2021/11/22 01:50:18;;;;;;;16.52;8.75;;;26.90;97.70;;;;;;4227538;28;20428;-72
2021/11/22 01:52:23;;;;;;;14.73;9.02;;;27.00;97.60;;;;;;4207358;28;20078;-72
2021/11/22 01:54:27;;;;;;;16.23;9.32;;;27.10;97.80;;;;;;4226998;28;20051;-72
2021/11/22 01:56:32;;;;;;;14.75;8.98;;;27.10;97.70;;;;;;4227562;28;20413;-72
2021/11/22 01:58:37;;;;;;;16.80;9.68;;;27.10;97.60;;;;;;4229576;28;20405;-72
2021/11/22 02:00:46;;;;;;;14.52;9.23;;;27.10;97.40;;;;;;4231319;28;20071;-73
2021/11/22 02:02:50;;;;;;;15.68;8.88;;;27.20;97.40;;;;;;4229408;28;20112;-74
2021/11/22 02:04:55;;;;;;;13.48;7.47;;;27.20;97.30;;;;;;4229783;28;20054;-73
2021/11/22 02:07:00;;;;;;;13.80;6.65;;;27.30;97.00;;;;;;4214315;28;20048;-74
2021/11/22 02:09:06;;;;;;;10.57;6.38;;;27.20;96.50;;;;;;4234396;28;20036;-73
2021/11/22 02:11:10;;;;;;;16.98;6.72;;;27.30;96.30;;;;;;4214159;28;20051;-73
2021/11/22 02:13:15;;;;;;;18.40;6.38;;;27.30;96.10;;;;;;4225337;28;20052;-73
2021/11/22 02:15:20;;;;;;;10.27;5.90;;;27.40;96.10;;;;;;4231484;28;20584;-73
2021/11/22 02:17:24;;;;;;;10.32;6.15;;;27.40;96.00;;;;;;4236002;28;20093;-73
2021/11/22 02:19:29;;;;;;;11.48;6.30;;;27.40;95.90;;;;;;4234045;28;20051;-74
2021/11/22 02:21:33;;;;;;;14.70;6.25;;;27.50;96.00;;;;;;4235553;28;20061;-74
2021/11/22 02:23:38;;;;;;;8.80;6.15;;;27.50;96.10;;;;;;4232286;28;20043;-74
2021/11/22 02:25:44;;;;;;;13.73;6.20;;;27.60;96.00;;;;;;4236299;28;20062;-73
2021/11/22 02:27:49;;;;;;;9.80;6.05;;;27.60;95.80;;;;;;4232923;28;20039;-73
2021/11/22 02:29:54;;;;;;;10.05;5.97;;;27.70;95.80;;;;;;4228945;28;20040;-73
2021/11/22 02:31:58;;;;;;;9.20;6.13;;;27.70;95.60;;;;;;4227960;28;20048;-73
2021/11/22 02:34:07;;;;;;;11.48;6.18;;;27.70;95.70;;;;;;4229401;28;20047;-73
2021/11/22 02:36:11;;;;;;;8.65;6.38;;;27.80;95.50;;;;;;4228404;28;20059;-73
2021/11/22 02:38:23;;;;;;;11.82;5.97;;;27.80;95.10;;;;;;4206201;28;20530;-72
2021/11/22 02:40:28;;;;;;;10.30;5.82;;;27.90;95.30;;;;;;4209422;28;20393;-72
2021/11/22 02:42:41;;;;;;;11.98;6.57;;;27.90;95.20;;;;;;4226558;28;20051;-72
2021/11/22 02:44:45;;;;;;;12.52;6.88;;;27.90;95.10;;;;;;4225663;28;20069;-72
2021/11/22 02:46:50;;;;;;;12.65;6.18;;;27.90;95.00;;;;;;4228456;28;20031;-72
2021/11/22 02:48:54;;;;;;;11.88;6.13;;;28.00;95.30;;;;;;4226219;28;20507;-72
2021/11/22 02:50:59;;;;;;;16.17;6.20;;;28.00;95.00;;;;;;4230535;27;20044;-73
2021/11/22 02:53:04;;;;;;;19.33;11.35;;;28.10;94.90;;;;;;4240100;27;20410;-72
2021/11/22 02:55:10;;;;;;;21.42;12.65;;;28.10;94.90;;;;;;4229800;28;20126;-72
2021/11/22 02:57:15;;;;;;;10.50;6.88;;;28.10;94.60;;;;;;4229582;28;20063;-72
2021/11/22 02:59:19;;;;;;;9.20;5.20;;;28.30;94.10;;;;;;4226628;27;20147;-72
2021/11/22 03:01:24;;;;;;;10.65;5.40;;;28.30;94.00;;;;;;4227105;28;20062;-72
2021/11/22 03:03:30;;;;;;;9.73;4.63;;;28.30;93.80;;;;;;4226979;28;20131;-74
2021/11/22 03:05:35;;;;;;;12.80;4.72;;;28.30;93.70;;;;;;4238342;27;20109;-74
2021/11/22 03:07:39;;;;;;;11.07;6.78;;;28.40;93.50;;;;;;4229326;28;20032;-73
2021/11/22 03:09:47;;;;;;;14.48;7.00;;;28.40;93.60;;;;;;4229905;27;20048;-75
2021/11/22 03:11:54;;;;;;;9.63;4.97;;;28.40;93.00;;;;;;4227380;27;20036;-76
2021/11/22 03:14:00;;;;;;;8.68;4.13;;;28.40;93.00;;;;;;4230188;28;20047;-78
2021/11/22 03:16:06;;;;;;;8.25;3.70;;;28.50;92.90;;;;;;4230404;28;20048;-76
2021/11/22 03:18:11;;;;;;;11.77;4.18;;;28.50;92.60;;;;;;4229939;28;20055;-77
2021/11/22 03:20:17;;;;;;;16.00;3.85;;;28.50;92.60;;;;;;4225299;27;20118;-77
2021/11/22 03:22:21;;;;;;;9.27;4.38;;;28.60;92.50;;;;;;4224258;28;20057;-75
2021/11/22 03:24:26;;;;;;;13.98;7.32;;;28.60;92.30;;;;;;4225871;28;20159;-75
2021/11/22 03:26:31;;;;;;;10.00;5.47;;;28.70;92.50;;;;;;4228285;28;20428;-75
2021/11/22 03:28:35;;;;;;;15.43;4.38;;;28.70;92.50;;;;;;4228553;28;20100;-75
2021/11/22 03:30:40;;;;;;;8.48;4.75;;;28.80;92.30;;;;;;4228202;28;20067;-75
2021/11/22 03:32:44;;;;;;;9.45;4.93;;;28.90;92.30;;;;;;4228645;27;20409;-76
2021/11/22 03:34:49;;;;;;;8.98;3.75;;;28.90;91.90;;;;;;4234297;27;20459;-73
2021/11/22 03:36:54;;;;;;;7.90;4.05;;;28.90;91.90;;;;;;4231850;27;20485;-76
2021/11/22 03:39:00;;;;;;;6.00;3.60;;;28.90;91.80;;;;;;4227192;27;20410;-76
2021/11/22 03:41:11;;;;;;;7.28;3.25;;;29.00;91.80;;;;;;4228880;27;20144;-78
2021/11/22 03:43:27;;;;;;;7.60;3.58;;;29.00;92.00;;;;;;4229628;28;20083;-77
2021/11/22 03:45:31;;;;;;;9.25;4.05;;;29.10;91.90;;;;;;4232660;27;20042;-76
2021/11/22 03:47:36;;;;;;;8.48;3.28;;;29.10;91.70;;;;;;4231499;27;20059;-76
2021/11/22 03:49:40;;;;;;;8.77;3.70;;;29.20;90.90;;;;;;4227669;28;20105;-76
2021/11/22 03:51:45;;;;;;;7.43;3.40;;;29.20;91.00;;;;;;4228920;27;20098;-75
2021/11/22 03:53:49;;;;;;;8.60;4.15;;;29.20;91.30;;;;;;4233135;27;20046;-75
2021/11/22 03:55:54;;;;;;;9.18;3.95;;;29.20;91.10;;;;;;4235198;27;20071;-76
2021/11/22 03:57:58;;;;;;;10.68;3.50;;;29.40;91.20;;;;;;4234930;27;20544;-75
2021/11/22 04:00:03;;;;;;;8.63;3.70;;;29.40;91.20;;;;;;4226500;27;20765;-76
2021/11/22 04:02:07;;;;;;;7.85;3.92;;;29.40;91.00;;;;;;4228565;28;20044;-76
2021/11/22 04:04:12;;;;;;;6.90;3.72;;;29.40;90.90;;;;;;4229149;28;20435;-76
2021/11/22 04:06:16;;;;;;;6.13;3.45;;;29.40;90.60;;;;;;4209839;28;20551;-75
2021/11/22 04:08:21;;;;;;;10.13;4.10;;;29.40;90.60;;;;;;4228078;28;20101;-75
2021/11/22 04:10:25;;;;;;;10.35;4.07;;;29.40;90.80;;;;;;4227901;28;20071;-76
2021/11/22 04:12:30;;;;;;;7.13;3.45;;;29.40;90.80;;;;;;4227294;27;20127;-76
2021/11/22 04:14:34;;;;;;;10.38;4.10;;;29.50;90.50;;;;;;4229095;28;20042;-75
2021/11/22 04:16:39;;;;;;;7.72;3.80;;;29.50;90.70;;;;;;4210639;28;20317;-75
2021/11/22 04:18:44;;;;;;;9.02;3.80;;;29.60;90.40;;;;;;4227794;28;20101;-76
2021/11/22 04:20:48;;;;;;;8.48;4.07;;;29.50;90.20;;;;;;4229041;27;20048;-73
2021/11/22 04:22:53;;;;;;;5.95;3.53;;;29.60;90.10;;;;;;4229356;27;20127;-75
2021/11/22 04:24:58;;;;;;;8.75;3.90;;;29.60;90.20;;;;;;4228716;28;20405;-74
2021/11/22 04:27:02;;;;;;;8.25;4.25;;;29.70;90.30;;;;;;4228779;27;20071;-73
2021/11/22 04:29:08;;;;;;;8.55;5.10;;;29.70;90.60;;;;;;4229158;27;20067;-72
2021/11/22 04:31:13;;;;;;;7.07;4.10;;;29.70;90.10;;;;;;4210175;28;20433;-74
2021/11/22 04:33:17;;;;;;;6.05;4.18;;;29.70;89.10;;;;;;4228651;27;20073;-74
2021/11/22 04:35:21;;;;;;;8.07;4.05;;;29.80;89.40;;;;;;4229378;27;20067;-74
2021/11/22 04:37:28;;;;;;;9.10;4.70;;;29.80;89.30;;;;;;4226520;28;20048;-73
2021/11/22 04:39:33;;;;;;;11.57;4.78;;;29.90;88.50;;;;;;4225383;28;20082;-77
2021/11/22 04:41:37;;;;;;;13.18;4.60;;;30.00;88.60;;;;;;4227340;28;20043;-76
2021/11/22 04:43:43;;;;;;;9.35;4.60;;;30.00;87.50;;;;;;4228382;28;20039;-76
2021/11/22 04:45:47;;;;;;;11.93;5.15;;;30.00;88.10;;;;;;4227766;27;20049;-76
2021/11/22 04:47:53;;;;;;;8.90;5.30;;;30.00;88.00;;;;;;4227067;28;20063;-76
2021/11/22 04:49:57;;;;;;;8.45;4.22;;;30.00;87.50;;;;;;4228515;28;20039;-75
2021/11/22 04:52:01;;;;;;;7.57;4.20;;;30.00;87.20;;;;;;4228358;28;20417;-75
2021/11/22 04:54:05;;;;;;;8.80;3.83;;;30.00;87.20;;;;;;4228476;28;20036;-74
2021/11/22 04:56:10;;;;;;;12.38;3.72;;;30.00;86.30;;;;;;4228951;27;20054;-74
2021/11/22 04:58:15;;;;;;;8.85;4.35;;;30.00;86.90;;;;;;4228263;28;20067;-74
2021/11/22 05:00:21;;;;;;;8.25;3.17;;;30.00;86.90;;;;;;4228102;28;20044;-75
2021/11/22 05:02:25;;;;;;;10.60;3.47;;;30.10;86.80;;;;;;4227460;28;20058;-76
2021/11/22 05:04:30;;;;;;;7.82;3.10;;;30.10;86.20;;;;;;4228819;28;20440;-75
2021/11/22 05:06:34;;;;;;;7.38;3.28;;;30.10;86.80;;;;;;4231394;27;20497;-75
2021/11/22 05:08:38;;;;;;;7.90;2.92;;;30.10;88.00;;;;;;4236451;27;20582;-75
2021/11/22 05:10:44;;;;;;;7.22;3.00;;;30.30;86.20;;;;;;4229367;27;20511;-76
2021/11/22 05:12:48;;;;;;;12.55;2.88;;;30.30;85.90;;;;;;4229780;28;20113;-77
2021/11/22 05:14:52;;;;;;;7.25;3.08;;;30.30;85.60;;;;;;4229350;28;20062;-75
2021/11/22 05:17:06;;;;;;;7.32;3.20;;;30.50;85.50;;;;;;4231236;28;20085;-75
2021/11/22 05:19:11;;;;;;;7.88;2.90;;;30.50;84.30;;;;;;4210815;28;20135;-76
2021/11/22 05:21:16;;;;;;;9.75;3.58;;;30.50;84.20;;;;;;4235485;27;20122;-76
2021/11/22 05:23:23;;;;;;;7.13;3.00;;;30.40;84.40;;;;;;4194480;28;20048;-77
2021/11/22 05:25:28;;;;;;;7.90;3.00;;;30.50;85.10;;;;;;4192731;28;20078;-77
2021/11/22 05:27:33;;;;;;;7.57;3.05;;;30.50;84.80;;;;;;4195906;28;20493;-77
2021/11/22 05:29:37;;;;;;;8.20;3.67;;;30.50;85.90;;;;;;4196884;28;20408;-75
2021/11/22 05:31:42;;;;;;;8.85;3.15;;;30.60;85.50;;;;;;4195786;28;20503;-76
2021/11/22 05:33:46;;;;;;;8.38;2.88;;;30.60;84.80;;;;;;4197507;28;20040;-75
2021/11/22 05:35:51;;;;;;;12.05;3.58;;;30.60;84.10;;;;;;4189655;28;20084;-76
2021/11/22 05:37:55;;;;;;;7.22;3.65;;;30.60;83.80;;;;;;4191782;28;20080;-76
2021/11/22 05:40:02;;;;;;;9.85;3.15;;;30.60;83.80;;;;;;4197113;28;20482;-75
2021/11/22 05:42:07;;;;;;;6.78;3.38;;;30.60;84.00;;;;;;4192926;28;20041;-76
2021/11/22 05:44:11;;;;;;;5.65;2.80;;;30.70;83.70;;;;;;4191520;28;20046;-76
2021/11/22 05:46:16;;;;;;;5.65;2.90;;;30.80;83.30;;;;;;4193619;28;20396;-78
2021/11/22 05:48:21;;;;;;;8.35;2.70;;;30.70;82.90;;;;;;4188327;28;20187;-75
2021/11/22 05:50:25;;;;;;;5.55;2.92;;;30.80;82.90;;;;;;4192591;28;20120;-75
2021/11/22 05:52:30;;;;;;;7.35;3.20;;;30.90;83.50;;;;;;4187423;28;20040;-75
2021/11/22 05:54:37;;;;;;;8.35;3.30;;;30.90;83.50;;;;;;4208243;28;20120;-75
2021/11/22 05:56:43;;;;;;;10.80;4.03;;;30.90;83.60;;;;;;4231286;28;20064;-75
2021/11/22 05:58:47;;;;;;;8.20;3.03;;;31.00;83.10;;;;;;4209705;28;20574;-75
2021/11/22 06:00:51;;;;;;;6.47;2.92;;;31.00;82.70;;;;;;4227688;28;20084;-76
2021/11/22 06:02:56;;;;;;;7.78;3.70;;;31.00;82.60;;;;;;4226437;28;20305;-77
2021/11/22 06:07:03;;;;;;;;;;;31.10;82.80;;;;;;4229092;28;20046;-77
2021/11/22 06:09:07;;;;;;;11.05;2.80;;;31.10;82.50;;;;;;4227467;28;19924;-78
2021/11/22 06:11:11;;;;;;;11.18;2.83;;;31.10;82.60;;;;;;4226408;28;20691;-78
2021/11/22 06:13:17;;;;;;;8.73;2.55;;;31.10;82.60;;;;;;4227985;28;20071;-79
2021/11/22 06:15:22;;;;;;;10.40;2.60;;;31.20;82.70;;;;;;4226774;28;20451;-78
2021/11/22 06:17:26;;;;;;;6.57;2.67;;;31.20;82.70;;;;;;4227132;28;20051;-78
2021/11/22 06:19:30;;;;;;;9.95;2.97;;;31.20;81.00;;;;;;4226577;28;20530;-78
2021/11/22 06:21:35;;;;;;;8.10;2.70;;;31.20;81.60;;;;;;4228966;28;20044;-78
2021/11/22 06:23:39;;;;;;;5.60;2.38;;;31.30;80.90;;;;;;4230187;28;20046;-77
2021/11/22 06:25:43;;;;;;;8.93;3.08;;;31.20;81.60;;;;;;4230208;28;20051;-77
2021/11/22 06:27:48;;;;;;;8.82;2.80;;;31.30;82.30;;;;;;4229742;28;20107;-78
2021/11/22 06:29:52;;;;;;;6.43;2.38;;;31.30;81.30;;;;;;4231134;27;20078;-77
2021/11/22 06:31:57;;;;;;;5.47;2.75;;;31.40;81.10;;;;;;4232581;28;20035;-77
2021/11/22 06:34:01;;;;;;;8.40;3.28;;;31.30;80.60;;;;;;4229982;28;20036;-78
2021/11/22 06:36:05;;;;;;;8.95;3.33;;;31.30;82.00;;;;;;4230258;28;20538;-77
2021/11/22 06:38:11;;;;;;;8.00;2.60;;;31.40;82.90;;;;;;4226723;27;20120;-78
2021/11/22 06:40:15;;;;;;;7.40;3.10;;;31.50;82.00;;;;;;4229532;27;20389;-78
2021/11/22 06:42:20;;;;;;;5.95;2.63;;;31.50;81.60;;;;;;4230283;27;20051;-78
2021/11/22 06:44:24;;;;;;;5.35;2.67;;;31.50;81.10;;;;;;4229536;28;20119;-78
2021/11/22 06:46:29;;;;;;;5.32;2.50;;;31.50;80.00;;;;;;4229137;28;20070;-78
2021/11/22 06:48:33;;;;;;;4.72;2.20;;;31.50;80.10;;;;;;4228539;27;20104;-77
2021/11/22 06:50:38;;;;;;;7.13;2.53;;;31.40;79.90;;;;;;4232773;27;20332;-77
2021/11/22 06:52:42;;;;;;;11.98;2.95;;;31.50;79.30;;;;;;4232684;27;20050;-77
2021/11/22 06:54:47;;;;;;;6.18;2.60;;;31.50;79.60;;;;;;4231856;27;20043;-77
2021/11/22 06:56:51;;;;;;;10.25;2.60;;;31.50;80.50;;;;;;4231773;27;20054;-77
2021/11/22 06:58:56;;;;;;;8.88;2.97;;;31.50;80.90;;;;;;4229532;27;20077;-78
2021/11/22 07:01:00;;;;;;;10.60;2.55;;;31.50;81.50;;;;;;4231343;27;20039;-76
2021/11/22 07:03:07;;;;;;;9.02;2.53;;;31.50;81.20;;;;;;4233153;27;20043;-77
2021/11/22 07:05:12;;;;;;;10.05;2.75;;;31.60;80.90;;;;;;4231878;27;20035;-78
2021/11/22 07:07:17;;;;;;;4.85;2.20;;;31.50;80.40;;;;;;4232034;27;20043;-77
2021/11/22 07:09:22;;;;;;;5.38;2.30;;;31.50;79.90;;;;;;4233018;27;20039;-76
2021/11/22 07:11:26;;;;;;;6.68;2.38;;;31.60;79.60;;;;;;4232560;27;20100;-76
2021/11/22 07:13:32;;;;;;;5.32;2.63;;;31.60;79.80;;;;;;4232834;27;20432;-77
2021/11/22 07:15:42;;;;;;;8.25;2.85;;;31.50;79.20;;;;;;4232591;27;20462;-77
2021/11/22 07:17:48;;;;;;;12.18;2.75;;;31.50;78.50;;;;;;4235276;27;20046;-77
2021/11/22 07:19:53;;;;;;;6.50;2.75;;;31.60;79.30;;;;;;4236306;27;20105;-76
2021/11/22 07:22:04;;;;;;;8.43;3.33;;;31.60;79.40;;;;;;4235641;27;20072;-77
2021/11/22 07:24:08;;;;;;;6.88;3.10;;;31.60;78.40;;;;;;4234900;27;20122;-76
2021/11/22 07:26:13;;;;;;;5.25;2.58;;;31.60;77.80;;;;;;4234883;27;20048;-77
2021/11/22 07:28:17;;;;;;;8.77;3.65;;;31.60;77.40;;;;;;4233381;27;20051;-77
2021/11/22 07:30:22;;;;;;;5.28;3.03;;;31.60;77.30;;;;;;4237041;27;20058;-76
2021/11/22 07:32:27;;;;;;;6.22;3.13;;;31.60;77.40;;;;;;4233734;27;21168;-75
2021/11/22 07:34:31;;;;;;;8.00;2.65;;;31.60;77.00;;;;;;4233270;27;20024;-76
2021/11/22 07:36:35;;;;;;;4.85;2.50;;;31.60;76.40;;;;;;4231185;27;20409;-76
2021/11/22 07:38:40;;;;;;;4.63;2.35;;;31.60;76.90;;;;;;4234307;27;20044;-76
2021/11/22 07:40:44;;;;;;;6.57;2.63;;;31.60;76.10;;;;;;4233491;27;20039;-75
2021/11/22 07:42:51;;;;;;;7.32;2.30;;;31.50;75.90;;;;;;4234797;27;20065;-76
2021/11/22 07:44:56;;;;;;;8.13;2.50;;;31.50;76.60;;;;;;4233351;27;20116;-76
2021/11/22 07:47:02;;;;;;;5.50;2.22;;;31.60;76.80;;;;;;4234377;27;20561;-77
2021/11/22 07:49:08;;;;;;;6.65;2.17;;;31.60;76.20;;;;;;4234237;27;20035;-76
2021/11/22 07:51:12;;;;;;;4.15;2.50;;;31.60;76.10;;;;;;4235113;27;20520;-76
2021/11/22 07:53:17;;;;;;;7.65;2.90;;;31.60;76.30;;;;;;4235321;27;20130;-76
2021/11/22 07:55:22;;;;;;;5.47;2.70;;;31.60;76.30;;;;;;4214533;28;20362;-76
2021/11/22 07:57:28;;;;;;;8.00;2.80;;;31.60;76.70;;;;;;4241262;27;20477;-75
2021/11/22 07:59:32;;;;;;;5.50;2.70;;;31.60;76.60;;;;;;4239771;27;20389;-75
2021/11/22 08:01:37;;;;;;;11.38;2.90;;;31.60;75.60;;;;;;4230136;27;20043;-76
2021/11/22 08:03:42;;;;;;;3.97;2.47;;;31.60;75.70;;;;;;4218610;28;20055;-76
2021/11/22 08:05:49;;;;;;;10.75;4.05;;;31.50;75.30;;;;;;4235853;27;20043;-75
2021/11/22 08:07:55;;;;;;;5.47;3.35;;;31.50;75.90;;;;;;4236635;27;20450;-75
2021/11/22 08:10:02;;;;;;;7.05;2.80;;;31.50;76.30;;;;;;4232289;27;20100;-77
2021/11/22 08:14:11;;;;;;;6.47;3.22;;;31.60;76.70;;;;;;4235955;27;20053;-77
2021/11/22 08:16:15;;;;;;;6.65;3.38;;;31.60;76.80;;;;;;4234265;27;20497;-78
2021/11/22 08:18:24;;;;;;;10.30;6.03;;;31.60;76.50;;;;;;4220454;27;20065;-77
2021/11/22 08:20:29;;;;;;;10.88;5.97;;;31.60;75.30;;;;;;4230602;27;20054;-78
2021/11/22 08:22:33;;;;;;;9.35;4.70;;;31.50;74.90;;;;;;4229742;28;20044;-78
2021/11/22 08:24:37;;;;;;;8.93;3.88;;;31.50;75.30;;;;;;4229642;27;20403;-78
2021/11/22 08:26:42;;;;;;;7.35;3.40;;;31.50;75.70;;;;;;4235830;27;20031;-78
2021/11/22 08:28:46;;;;;;;8.93;5.28;;;31.50;75.90;;;;;;4236680;27;20478;-78
2021/11/22 08:30:51;;;;;;;9.88;4.85;;;31.60;76.60;;;;;;4234397;27;20039;-77
2021/11/22 08:32:56;;;;;;;8.15;5.03;;;31.50;76.10;;;;;;4230476;27;20470;-76
2021/11/22 08:35:01;;;;;;;10.52;4.68;;;31.50;76.10;;;;;;4233741;27;20066;-77
2021/11/22 08:37:05;;;;;;;20.23;6.88;;;31.50;76.50;;;;;;4236418;27;20045;-77
2021/11/22 08:39:10;;;;;;;38.67;6.80;;;31.50;76.80;;;;;;4230995;27;20082;-77
2021/11/22 08:41:15;;;;;;;68.05;17.67;;;31.50;77.20;;;;;;4233559;27;20505;-77
2021/11/22 08:43:20;;;;;;;13.88;3.83;;;31.50;76.50;;;;;;4228816;27;20154;-75
2021/11/22 08:45:24;;;;;;;9.40;2.60;;;31.40;75.60;;;;;;4211281;28;20075;-77
2021/11/22 08:47:28;;;;;;;7.50;3.28;;;31.40;76.00;;;;;;4229782;27;20130;-75
2021/11/22 08:49:34;;;;;;;12.75;6.50;;;31.40;77.40;;;;;;4233158;27;20036;-75
2021/11/22 08:51:38;;;;;;;9.23;3.25;;;31.40;76.90;;;;;;4224079;27;20091;-76
2021/11/22 08:53:43;;;;;;;9.90;4.20;;;31.50;77.10;;;;;;4232298;27;20596;-76
2021/11/22 08:55:47;;;;;;;8.73;3.80;;;31.50;77.30;;;;;;4231110;27;20400;-75
2021/11/22 08:57:52;;;;;;;11.85;4.15;;;31.40;77.80;;;;;;4232047;27;20061;-75
2021/11/22 08:59:56;;;;;;;13.63;6.15;;;31.40;77.60;;;;;;4226053;27;20042;-74
2021/11/22 09:02:01;;;;;;;17.38;8.40;;;31.40;77.70;;;;;;4226840;27;20035;-75
2021/11/22 09:04:06;;;;;;;21.77;10.65;;;31.40;77.70;;;;;;4225752;27;20042;-75
2021/11/22 09:06:11;;;;;;;19.95;10.95;;;31.40;78.30;;;;;;4216418;27;20564;-75
2021/11/22 09:08:16;;;;;;;16.50;8.02;;;31.30;77.50;;;;;;4221413;27;20145;-75
2021/11/22 09:10:22;;;;;;;11.10;4.57;;;31.30;77.30;;;;;;4227439;27;20040;-75
2021/11/22 09:12:27;;;;;;;7.68;3.50;;;31.30;77.60;;;;;;4232915;27;20043;-74
2021/11/22 09:14:31;;;;;;;9.80;3.05;;;31.20;77.70;;;;;;4237596;27;20096;-75
2021/11/22 09:16:35;;;;;;;5.80;2.90;;;31.20;77.70;;;;;;4235735;27;20324;-74
2021/11/22 09:18:40;;;;;;;7.82;2.60;;;31.10;76.80;;;;;;4229059;27;20139;-74
2021/11/22 09:20:46;;;;;;;5.80;2.65;;;31.10;77.40;;;;;;4222974;28;20051;-74
2021/11/22 09:22:54;;;;;;;6.53;3.10;;;31.10;77.20;;;;;;4224951;28;20101;-74
2021/11/22 09:24:58;;;;;;;11.73;5.45;;;31.10;77.60;;;;;;4225398;28;20047;-74
2021/11/22 09:27:03;;;;;;;11.98;5.20;;;31.10;77.90;;;;;;4227602;27;20050;-74
2021/11/22 09:29:12;;;;;;;16.23;6.38;;;31.10;77.80;;;;;;4226196;28;20282;-75
2021/11/22 09:31:16;;;;;;;23.35;9.32;;;31.10;77.80;;;;;;4225287;28;20051;-74
2021/11/22 09:33:22;;;;;;;23.00;10.02;;;31.10;77.90;;;;;;4223339;28;20074;-76
2021/11/22 09:35:28;;;;;;;25.13;9.75;;;31.20;78.10;;;;;;4225391;28;20079;-76
2021/11/22 09:37:34;;;;;;;16.73;7.72;;;31.10;78.20;;;;;;4226315;28;20047;-76
2021/11/22 09:39:38;;;;;;;20.65;8.55;;;31.10;78.50;;;;;;4225050;28;20055;-75
2021/11/22 09:41:47;;;;;;;25.13;8.75;;;31.10;78.80;;;;;;4222609;28;20044;-77
2021/11/22 09:43:52;;;;;;;18.85;8.35;;;31.10;78.90;;;;;;4225398;28;20100;-77
2021/11/22 09:45:57;;;;;;;18.27;8.27;;;31.10;79.00;;;;;;4225828;28;20044;-77
2021/11/22 09:48:02;;;;;;;17.35;7.05;;;31.10;78.80;;;;;;4225567;28;20034;-76
2021/11/22 09:50:07;;;;;;;14.45;6.88;;;31.00;78.70;;;;;;4223050;28;20052;-76
2021/11/22 09:52:11;;;;;;;16.63;7.97;;;31.00;78.70;;;;;;4224377;28;20039;-75
2021/11/22 09:54:16;;;;;;;22.10;8.68;;;31.00;78.80;;;;;;4221879;28;20497;-76
2021/11/22 09:56:20;;;;;;;16.60;9.48;;;31.00;78.80;;;;;;4226917;28;20047;-75
2021/11/22 09:58:24;;;;;;;23.83;9.95;;;31.00;78.90;;;;;;4226183;27;20497;-74
2021/11/22 10:00:46;;;;;;;29.95;12.95;;;31.00;79.00;;;;;;4228789;28;20163;-76
2021/11/22 10:02:53;;;;;;;28.23;12.93;;;31.00;79.00;;;;;;4228514;28;20047;-75
2021/11/22 10:05:17;;;;;;;35.05;14.57;;;30.90;79.10;;;;;;4226302;28;20044;-78
2021/11/22 10:07:22;;;;;;;32.33;14.65;;;30.90;79.10;;;;;;4216946;28;20086;-78
2021/11/22 10:09:46;;;;;;;49.75;19.02;;;30.90;79.30;;;;;;4214904;27;20053;-76
2021/11/22 10:11:54;;;;;;;42.75;18.40;;;30.80;79.30;;;;;;4233989;27;20051;-78
2021/11/22 10:14:02;;;;;;;50.28;17.73;;;30.80;79.50;;;;;;4236561;27;20130;-74
2021/11/22 10:16:26;;;;;;;44.45;17.00;;;30.80;79.60;;;;;;4229087;27;20509;-74
2021/11/22 10:18:32;;;;;;;52.72;15.95;;;30.80;79.80;;;;;;4238980;27;20043;-74
2021/11/22 10:20:37;;;;;;;51.83;16.55;;;30.80;80.00;;;;;;4238137;27;20042;-75
2021/11/22 10:23:04;;;;;;;61.78;20.35;;;30.70;80.10;;;;;;4232173;27;20054;-73
2021/11/22 10:25:21;;;;;;;66.00;21.48;;;30.70;80.30;;;;;;4235828;27;20122;-72
2021/11/22 10:27:38;;;;;;;69.68;22.10;;;30.60;80.60;;;;;;4234709;27;20039;-74
2021/11/22 10:29:42;;;;;;;54.03;18.52;;;30.60;80.80;;;;;;4234786;27;20039;-74
2021/11/22 10:31:47;;;;;;;35.65;12.95;;;30.60;80.90;;;;;;4235649;27;20054;-74
2021/11/22 10:33:52;;;;;;;38.50;12.73;;;30.60;81.00;;;;;;4202118;27;20110;-74
2021/11/22 10:36:00;;;;;;;44.00;21.83;;;30.60;81.10;;;;;;4238171;27;20040;-74
2021/11/22 10:38:15;;;;;;;42.33;20.08;;;30.60;81.40;;;;;;4230789;27;20048;-74
2021/11/22 10:40:20;;;;;;;54.70;22.13;;;30.50;81.50;;;;;;4234550;27;20047;-77
2021/11/22 10:42:26;;;;;;;58.15;25.00;;;30.50;81.70;;;;;;4233069;27;20052;-78
2021/11/22 10:44:32;;;;;;;121.93;47.70;;;30.50;81.90;;;;;;4231936;27;20067;-72
2021/11/22 10:46:54;;;;;;;108.35;45.38;;;30.50;82.20;;;;;;4241865;27;20647;-73
2021/11/22 10:49:13;;;;;;;85.72;42.03;;;30.50;82.70;;;;;;4235042;27;20035;-75
2021/11/22 10:51:23;;;;;;;83.57;37.03;;;30.40;83.10;;;;;;4236008;27;20123;-75
2021/11/22 10:53:40;;;;;;;68.05;33.25;;;30.40;83.40;;;;;;4229421;27;20649;-75